Time;durP1;ratioP1;P1;durP2;ratioP2;P2;SDS_P1;SDS_P2;PMS_P1;PMS_P2;Temp;Humidity;BMP_temperature;BMP_pressure;BME280_temperature;BME280_humidity;BME280_pressure;Samples;Min_cycle;Max_cycle;Signal;HPM_P1;HPM_P2
2022/06/28 00:02:01;;;;;;;0.25;0.25;;;;;;;27.83;42.71;99503.06;5130760;27;20043;-58
2022/06/28 00:04:27;;;;;;;0.20;0.20;;;;;;;27.84;42.89;99496.22;5131039;28;20047;-60
2022/06/28 00:06:52;;;;;;;0.40;0.30;;;;;;;27.82;42.84;99482.59;5130865;28;20039;-60
2022/06/28 00:09:19;;;;;;;0.20;0.20;;;;;;;27.84;42.77;99479.34;5130570;27;20180;-60
2022/06/28 00:11:44;;;;;;;0.47;0.28;;;;;;;27.83;42.74;99463.72;5130723;27;20103;-61
2022/06/28 00:16:56;;;;;;;0.30;0.22;;;;;;;27.81;42.65;99452.91;5130906;27;20062;-60
2022/06/28 00:19:22;;;;;;;0.40;0.30;;;;;;;27.80;42.89;99453.34;5130527;28;20084;-61
2022/06/28 00:21:48;;;;;;;0.30;0.30;;;;;;;27.81;42.85;99464.16;5130479;27;20031;-61
2022/06/28 00:24:14;;;;;;;0.30;0.30;;;;;;;27.82;42.91;99471.34;5130673;27;20051;-61
2022/06/28 00:26:39;;;;;;;0.30;0.30;;;;;;;27.83;43.00;99472.16;5130648;27;20042;-61
2022/06/28 00:29:05;;;;;;;0.45;0.30;;;;;;;27.83;42.84;99489.81;5130488;27;20047;-60
2022/06/28 00:31:30;;;;;;;0.52;0.30;;;;;;;27.84;42.87;99499.84;5130600;28;20128;-61
2022/06/28 00:33:56;;;;;;;0.52;0.40;;;;;;;27.82;42.83;99493.84;5130700;27;20526;-61
2022/06/28 00:36:21;;;;;;;0.38;0.30;;;;;;;27.82;42.76;99482.59;5130648;27;20046;-60
2022/06/28 00:38:47;;;;;;;0.35;0.30;;;;;;;27.84;42.76;99449.22;5130127;28;20433;-60
2022/06/28 00:41:12;;;;;;;0.30;0.30;;;;;;;27.83;42.81;99444.03;5130411;28;20392;-60
2022/06/28 00:43:38;;;;;;;0.47;0.40;;;;;;;27.83;42.87;99456.06;5130577;27;20051;-60
2022/06/28 00:46:03;;;;;;;0.32;0.20;;;;;;;27.83;42.64;99446.84;5133772;27;20047;-60
2022/06/28 00:48:29;;;;;;;0.30;0.20;;;;;;;27.83;42.87;99433.59;5133856;27;20541;-60
2022/06/28 00:50:55;;;;;;;0.20;0.20;;;;;;;27.82;42.76;99403.91;5134153;27;20071;-60
2022/06/28 00:53:21;;;;;;;0.20;0.20;;;;;;;27.82;42.88;99381.41;5134035;27;20035;-61
2022/06/28 00:55:47;;;;;;;0.30;0.30;;;;;;;27.82;42.91;99391.84;5115615;28;20084;-61
2022/06/28 00:58:14;;;;;;;0.38;0.22;;;;;;;27.82;42.99;99419.97;5133931;28;20039;-61
2022/06/28 01:00:43;;;;;;;0.22;0.22;;;;;;;27.81;43.04;99401.50;5133672;28;20059;-60
2022/06/28 01:03:11;;;;;;;0.30;0.30;;;;;;;27.80;42.98;99383.84;5133875;27;20452;-60
2022/06/28 01:05:37;;;;;;;0.20;0.20;;;;;;;27.80;43.22;99369.00;5133729;27;20066;-60
2022/06/28 01:08:04;;;;;;;0.20;0.20;;;;;;;27.79;43.31;99364.56;5133858;27;20039;-61
2022/06/28 01:10:30;;;;;;;0.40;0.30;;;;;;;27.79;43.34;99354.16;5133462;27;20433;-61
2022/06/28 01:12:55;;;;;;;0.73;0.38;;;;;;;27.81;43.24;99353.72;5133633;28;20727;-60
2022/06/28 01:15:21;;;;;;;0.30;0.30;;;;;;;27.80;43.13;99355.75;5133607;28;20043;-61
2022/06/28 01:17:47;;;;;;;0.30;0.30;;;;;;;27.83;43.30;99354.09;5133606;27;20503;-61
2022/06/28 01:20:12;;;;;;;0.35;0.20;;;;;;;27.80;43.28;99355.75;5133107;27;20082;-61
2022/06/28 01:22:44;;;;;;;0.28;0.20;;;;;;;27.81;43.22;99356.53;5133373;27;20100;-61
2022/06/28 01:25:10;;;;;;;0.20;0.20;;;;;;;27.81;43.20;99357.34;5133447;27;20047;-61
2022/06/28 01:27:36;;;;;;;0.25;0.22;;;;;;;27.80;43.14;99341.69;5133601;27;20121;-61
2022/06/28 01:30:04;;;;;;;0.30;0.25;;;;;;;27.80;43.05;99327.63;5133363;27;20059;-61
2022/06/28 01:32:30;;;;;;;0.17;0.17;;;;;;;27.78;43.00;99315.22;5133362;27;20059;-60
2022/06/28 01:34:56;;;;;;;0.60;0.47;;;;;;;27.77;43.19;99310.81;5133423;27;20046;-60
2022/06/28 01:37:23;;;;;;;0.45;0.40;;;;;;;27.77;43.05;99310.81;5133317;28;20055;-60
2022/06/28 01:39:48;;;;;;;0.30;0.30;;;;;;;27.79;42.92;99305.56;5132988;28;20058;-60
2022/06/28 01:42:14;;;;;;;0.32;0.30;;;;;;;27.78;43.19;99290.72;5133144;28;20039;-61
2022/06/28 01:44:41;;;;;;;0.32;0.20;;;;;;;27.78;43.23;99298.34;5133070;28;20315;-60
2022/06/28 01:47:07;;;;;;;0.40;0.25;;;;;;;27.78;43.23;99290.72;5132927;28;20125;-60
2022/06/28 01:49:33;;;;;;;0.35;0.20;;;;;;;27.79;43.03;99294.31;5132730;28;20043;-60
2022/06/28 01:51:58;;;;;;;0.60;0.40;;;;;;;27.78;43.06;99307.56;5133360;27;20050;-60
2022/06/28 01:54:25;;;;;;;0.20;0.20;;;;;;;27.78;43.18;99307.56;5133188;27;20410;-60
2022/06/28 01:56:51;;;;;;;0.30;0.30;;;;;;;27.78;42.93;99313.19;5131662;27;20058;-60
2022/06/28 01:59:17;;;;;;;0.22;0.22;;;;;;;27.78;43.16;99327.25;5132734;27;20047;-60
2022/06/28 02:01:42;;;;;;;0.30;0.20;;;;;;;27.78;43.14;99316.00;5132691;28;20474;-61
2022/06/28 02:04:25;;;;;;;0.30;0.25;;;;;;;27.77;43.19;99296.75;5132882;27;20055;-61
2022/06/28 02:06:51;;;;;;;0.30;0.30;;;;;;;27.77;43.08;99300.38;5132807;27;20388;-61
2022/06/28 02:09:16;;;;;;;0.45;0.40;;;;;;;27.76;43.09;99301.59;5132629;27;20524;-61
2022/06/28 02:11:42;;;;;;;0.73;0.40;;;;;;;27.76;42.95;99315.63;5114149;27;20051;-60
2022/06/28 02:14:08;;;;;;;0.30;0.30;;;;;;;27.77;43.12;99310.81;5090568;28;20100;-61
2022/06/28 02:16:34;;;;;;;0.52;0.40;;;;;;;27.78;43.00;99323.63;5091813;28;20052;-61
2022/06/28 02:18:59;;;;;;;0.30;0.20;;;;;;;27.77;43.05;99322.06;5091487;28;20400;-61
2022/06/28 02:21:25;;;;;;;0.40;0.25;;;;;;;27.78;43.16;99326.44;5073375;28;20131;-61
2022/06/28 02:23:51;;;;;;;0.82;0.38;;;;;;;27.78;43.03;99329.25;5071369;28;20040;-61
2022/06/28 02:26:16;;;;;;;0.20;0.20;;;;;;;27.77;43.03;99339.72;5071313;28;20094;-60
2022/06/28 02:28:42;;;;;;;0.52;0.30;;;;;;;27.79;42.93;99342.91;5073572;28;20049;-61
2022/06/28 02:31:12;;;;;;;0.68;0.32;;;;;;;27.78;43.04;99335.69;5071061;28;20049;-60
2022/06/28 02:33:38;;;;;;;1.35;0.40;;;;;;;27.80;42.85;99340.91;5071265;28;20044;-60
2022/06/28 02:41:32;;;;;;;0.32;0.20;;;;;;;27.78;42.80;99323.63;5070958;28;20124;-60
2022/06/28 02:43:58;;;;;;;0.25;0.20;;;;;;;27.75;42.80;99322.50;5071168;28;20041;-61
2022/06/28 02:46:24;;;;;;;2.78;0.30;;;;;;;27.78;42.95;99326.44;5071293;28;20050;-60
2022/06/28 02:48:49;;;;;;;0.50;0.35;;;;;;;27.77;43.05;99330.47;5071185;28;20135;-61
2022/06/28 02:51:15;;;;;;;0.40;0.30;;;;;;;27.77;43.18;99350.94;5071030;28;20124;-60
2022/06/28 02:53:41;;;;;;;0.22;0.20;;;;;;;27.77;42.85;99350.94;5071071;28;20463;-61
2022/06/28 02:56:07;;;;;;;0.45;0.30;;;;;;;27.77;42.92;99355.78;5070959;28;20097;-61
2022/06/28 02:58:32;;;;;;;0.40;0.30;;;;;;;27.78;42.92;99355.34;5070883;28;20079;-60
2022/06/28 03:00:58;;;;;;;0.30;0.25;;;;;;;27.77;42.85;99350.94;5070434;28;20106;-60
2022/06/28 03:03:24;;;;;;;1.00;0.30;;;;;;;27.78;43.09;99355.34;5070746;28;20072;-61
2022/06/28 03:05:50;;;;;;;0.38;0.20;;;;;;;27.80;42.98;99360.56;5070857;28;20474;-62
2022/06/28 03:08:16;;;;;;;0.22;0.20;;;;;;;27.80;43.19;99352.13;5070641;28;20492;-62
2022/06/28 03:10:42;;;;;;;0.25;0.22;;;;;;;27.80;42.94;99350.13;5070744;28;20079;-62
2022/06/28 03:13:07;;;;;;;0.65;0.40;;;;;;;27.79;42.91;99353.34;5070861;28;20052;-60
2022/06/28 03:15:33;;;;;;;0.30;0.20;;;;;;;27.80;42.76;99343.72;5070735;28;20044;-61
2022/06/28 03:17:58;;;;;;;0.20;0.20;;;;;;;27.79;42.94;99342.91;5070627;28;20040;-61
2022/06/28 03:20:24;;;;;;;0.20;0.20;;;;;;;27.78;42.95;99346.13;5070584;28;20131;-61
2022/06/28 03:22:49;;;;;;;0.73;0.35;;;;;;;27.79;43.14;99351.34;5070168;28;20420;-61
2022/06/28 03:25:14;;;;;;;0.60;0.35;;;;;;;27.80;42.93;99355.75;5070479;28;20045;-61
2022/06/28 03:27:40;;;;;;;0.20;0.20;;;;;;;27.80;42.84;99349.31;5070620;28;20524;-61
2022/06/28 03:30:06;;;;;;;0.30;0.30;;;;;;;27.79;42.64;99347.72;5070613;28;20052;-60
2022/06/28 03:32:31;;;;;;;0.70;0.32;;;;;;;27.80;42.64;99349.31;5070155;28;20053;-60
2022/06/28 03:34:57;;;;;;;0.45;0.30;;;;;;;27.80;42.84;99349.31;5070472;28;20040;-61
2022/06/28 03:37:22;;;;;;;0.17;0.17;;;;;;;27.79;42.76;99339.28;5070066;28;20044;-61
2022/06/28 03:39:48;;;;;;;0.45;0.30;;;;;;;27.79;42.64;99342.91;5070262;28;20044;-60
2022/06/28 03:42:14;;;;;;;0.45;0.30;;;;;;;27.77;42.63;99345.34;5069661;28;20475;-61
2022/06/28 03:44:39;;;;;;;0.20;0.20;;;;;;;27.78;42.75;99337.69;5070068;28;20048;-61
2022/06/28 03:47:05;;;;;;;0.40;0.30;;;;;;;27.78;42.76;99335.69;5069966;28;20072;-61
2022/06/28 03:49:30;;;;;;;0.30;0.30;;;;;;;27.80;42.86;99352.13;5070161;28;20054;-61
2022/06/28 03:51:56;;;;;;;0.30;0.30;;;;;;;27.78;42.83;99351.75;5069850;28;20114;-60
2022/06/28 03:54:21;;;;;;;0.30;0.30;;;;;;;27.79;42.53;99354.16;5070057;28;20033;-60
2022/06/28 03:56:47;;;;;;;0.30;0.30;;;;;;;27.79;42.83;99356.97;5070251;28;20143;-61
2022/06/28 03:59:13;;;;;;;0.32;0.30;;;;;;;27.79;42.76;99354.16;5070010;28;20044;-61
2022/06/28 04:01:38;;;;;;;0.38;0.30;;;;;;;27.77;42.72;99359.38;5069630;28;20135;-60
2022/06/28 04:04:03;;;;;;;0.20;0.20;;;;;;;27.79;42.72;99354.16;5069760;28;20127;-60
2022/06/28 04:06:29;;;;;;;0.20;0.20;;;;;;;27.76;42.78;99343.75;5069835;28;20131;-60
2022/06/28 04:08:54;;;;;;;0.10;0.10;;;;;;;27.76;42.77;99346.56;5069793;28;20041;-60
2022/06/28 04:11:20;;;;;;;0.40;0.30;;;;;;;27.78;42.82;99346.91;5069725;28;20047;-60
2022/06/28 04:13:51;;;;;;;0.30;0.30;;;;;;;27.78;42.75;99346.13;5069496;28;20040;-61
2022/06/28 04:16:17;;;;;;;0.63;0.40;;;;;;;27.80;42.70;99343.72;5069593;28;20048;-60
2022/06/28 04:18:46;;;;;;;0.40;0.30;;;;;;;27.79;42.86;99347.72;5084673;28;20048;-61
2022/06/28 04:21:13;;;;;;;0.28;0.28;;;;;;;27.77;42.65;99339.72;5089962;28;20051;-61
2022/06/28 04:23:38;;;;;;;0.45;0.30;;;;;;;27.78;42.85;99344.09;5089452;28;20036;-61
2022/06/28 04:26:04;;;;;;;0.20;0.20;;;;;;;27.78;42.90;99341.28;5089677;28;20565;-61
2022/06/28 04:28:30;;;;;;;0.45;0.30;;;;;;;27.77;42.87;99344.53;5089818;28;20075;-61
2022/06/28 04:30:56;;;;;;;0.47;0.32;;;;;;;27.78;42.80;99343.31;5089624;28;20044;-61
2022/06/28 04:33:22;;;;;;;0.20;0.20;;;;;;;27.77;42.86;99334.09;5089447;28;20261;-61
2022/06/28 04:35:48;;;;;;;0.30;0.20;;;;;;;27.78;42.98;99341.28;5089589;28;20416;-61
2022/06/28 04:38:13;;;;;;;0.60;0.30;;;;;;;27.78;42.84;99341.28;5089621;28;20052;-60
2022/06/28 04:40:39;;;;;;;0.28;0.28;;;;;;;27.76;42.85;99343.75;5089553;28;20144;-60
2022/06/28 04:43:04;;;;;;;0.30;0.30;;;;;;;27.78;42.86;99338.50;5089312;28;20072;-61
2022/06/28 04:45:30;;;;;;;0.30;0.30;;;;;;;27.79;42.90;99328.84;5089465;28;20051;-61
2022/06/28 04:47:56;;;;;;;0.28;0.20;;;;;;;27.78;42.71;99324.44;5089645;28;20055;-61
2022/06/28 04:50:21;;;;;;;0.20;0.20;;;;;;;27.78;42.94;99326.44;5089485;28;20258;-61
2022/06/28 04:52:47;;;;;;;0.47;0.30;;;;;;;27.79;42.85;99334.47;5089241;28;20124;-60
2022/06/28 04:55:12;;;;;;;0.30;0.28;;;;;;;27.77;42.97;99336.09;5089447;28;20036;-61
2022/06/28 04:57:37;;;;;;;0.25;0.25;;;;;;;27.78;42.80;99349.72;5088067;28;20530;-58
2022/06/28 05:00:04;;;;;;;0.20;0.20;;;;;;;27.80;42.90;99335.28;5089590;28;20134;-58
2022/06/28 05:02:30;;;;;;;0.25;0.25;;;;;;;27.81;43.01;99332.03;5087949;28;20044;-58
2022/06/28 05:04:55;;;;;;;0.52;0.20;;;;;;;27.82;43.00;99336.44;5087045;28;20040;-58
2022/06/28 05:07:21;;;;;;;0.30;0.28;;;;;;;27.83;43.04;99328.78;5087827;28;20174;-58
2022/06/28 05:09:46;;;;;;;0.30;0.30;;;;;;;27.84;42.80;99328.34;5089210;28;20438;-57
2022/06/28 05:12:12;;;;;;;0.28;0.28;;;;;;;27.83;43.23;99325.97;5089163;28;20052;-58
2022/06/28 05:14:37;;;;;;;0.20;0.20;;;;;;;27.84;43.24;99327.56;5088889;28;20486;-58
2022/06/28 05:17:03;;;;;;;0.20;0.20;;;;;;;27.84;43.29;99336.78;5088992;28;20531;-57
2022/06/28 05:19:30;;;;;;;0.32;0.30;;;;;;;27.82;43.28;99338.44;5086598;28;20138;-58
2022/06/28 05:21:55;;;;;;;0.30;0.30;;;;;;;27.82;43.27;99342.06;5088696;28;20299;-58
2022/06/28 05:24:21;;;;;;;2.70;0.40;;;;;;;27.83;43.92;99349.25;5088991;28;20195;-58
2022/06/28 05:26:46;;;;;;;1.15;0.32;;;;;;;27.83;43.42;99332.41;5089067;28;20101;-57
2022/06/28 05:29:12;;;;;;;15.35;0.77;;;;;;;27.85;43.93;99329.94;5089112;28;20075;-58
2022/06/28 05:31:38;;;;;;;13.60;0.93;;;;;;;27.87;43.67;99326.72;5091615;28;20083;-58
2022/06/28 05:34:03;;;;;;;18.08;1.55;;;;;;;27.87;43.71;99332.34;5092289;28;20043;-57
2022/06/28 05:36:29;;;;;;;15.93;0.90;;;;;;;27.88;43.65;99323.50;5092611;28;20470;-58
2022/06/28 05:38:55;;;;;;;10.38;1.05;;;;;;;27.87;43.52;99321.13;5092560;28;20469;-58
2022/06/28 05:41:20;;;;;;;12.88;0.63;;;;;;;27.88;43.59;99326.31;5092349;28;20048;-58
2022/06/28 05:43:45;;;;;;;14.25;1.00;;;;;;;27.88;43.51;99331.94;5091950;28;20062;-58
2022/06/28 05:46:11;;;;;;;9.05;0.90;;;;;;;27.88;43.43;99334.72;5092285;28;20044;-57
2022/06/28 05:48:36;;;;;;;15.93;0.95;;;;;;;27.90;43.50;99325.88;5092443;28;20113;-58
2022/06/28 05:51:03;;;;;;;10.63;1.13;;;;;;;27.90;43.45;99329.47;5092347;28;20135;-58
2022/06/28 05:53:28;;;;;;;2.63;0.70;;;;;;;27.89;43.55;99333.50;5091855;28;20074;-58
2022/06/28 05:55:54;;;;;;;8.38;1.10;;;;;;;27.89;43.52;99333.50;5092016;28;20044;-57
2022/06/28 05:58:19;;;;;;;3.10;0.60;;;;;;;27.90;43.26;99329.47;5092047;28;20538;-58
2022/06/28 06:00:45;;;;;;;11.00;0.73;;;;;;;27.89;43.33;99327.88;5091902;28;20139;-58
2022/06/28 06:03:10;;;;;;;6.20;0.80;;;;;;;27.92;43.37;99321.41;5091793;28;20239;-58
2022/06/28 06:05:36;;;;;;;5.95;0.93;;;;;;;27.81;43.63;99317.97;5091632;28;20052;-58
2022/06/28 06:08:01;;;;;;;6.40;0.55;;;;;;;27.75;43.57;99316.06;5091656;28;20579;-58
2022/06/28 06:10:27;;;;;;;7.93;1.08;;;;;;;27.69;43.77;99310.13;5061244;28;20041;-58
2022/06/28 06:12:52;;;;;;;4.65;0.73;;;;;;;27.59;43.50;99311.84;5066364;28;20033;-64
2022/06/28 06:15:17;;;;;;;2.92;0.60;;;;;;;27.46;43.54;99319.28;5065429;28;20049;-66
2022/06/28 06:17:43;;;;;;;2.38;0.60;;;;;;;27.38;44.24;99312.97;5064007;28;20052;-67
2022/06/28 06:20:09;;;;;;;0.73;0.40;;;;;;;27.34;44.24;99317.81;5065321;28;20128;-67
2022/06/28 06:22:34;;;;;;;5.03;0.63;;;;;;;27.25;44.19;99314.72;5069184;28;21038;-67
2022/06/28 06:25:00;;;;;;;2.17;0.80;;;;;;;27.23;44.47;99314.38;5065339;28;20100;-67
2022/06/28 06:27:25;;;;;;;2.15;0.85;;;;;;;27.17;44.38;99302.00;5087510;28;20047;-67
2022/06/28 06:29:51;;;;;;;2.67;0.80;;;;;;;27.25;44.64;99309.13;5083216;28;20048;-65
2022/06/28 06:32:16;;;;;;;2.55;0.70;;;;;;;27.29;43.98;99309.06;5064474;28;20036;-65
2022/06/28 06:34:42;;;;;;;2.08;0.80;;;;;;;27.08;43.15;99308.16;5067871;28;20080;-61
2022/06/28 06:37:07;;;;;;;1.55;0.82;;;;;;;26.73;43.54;99294.50;5076162;28;20070;-61
2022/06/28 06:39:33;;;;;;;2.30;0.90;;;;;;;26.40;46.48;99293.25;5077956;28;20040;-61
2022/06/28 06:41:59;;;;;;;2.30;0.77;;;;;;;26.18;47.43;99295.44;5081307;28;20157;-60
2022/06/28 06:44:25;;;;;;;2.72;0.98;;;;;;;26.16;47.87;99301.47;5075896;28;20407;-61
2022/06/28 06:46:51;;;;;;;2.28;0.70;;;;;;;26.22;47.79;99285.78;5068942;28;20045;-61
2022/06/28 06:49:17;;;;;;;1.90;0.77;;;;;;;26.32;46.25;99292.50;5060790;28;20043;-61
2022/06/28 06:51:44;;;;;;;2.70;0.85;;;;;;;26.20;45.68;99293.00;5063741;28;20127;-61
2022/06/28 06:54:11;;;;;;;2.58;0.80;;;;;;;25.99;45.58;99291.19;5078851;28;20052;-61
2022/06/28 06:56:38;;;;;;;3.67;0.70;;;;;;;25.96;47.69;99292.00;5075466;28;20077;-61
2022/06/28 06:59:04;;;;;;;3.25;0.70;;;;;;;26.01;48.19;99300.00;5074651;28;20048;-61
2022/06/28 07:01:33;;;;;;;1.33;0.70;;;;;;;26.09;47.90;99295.13;5074084;28;20057;-62
2022/06/28 07:03:58;;;;;;;2.88;0.90;;;;;;;26.24;47.56;99296.59;5066739;28;20050;-62
2022/06/28 07:06:24;;;;;;;2.53;0.77;;;;;;;26.27;46.07;99290.94;5078956;28;20052;-62
2022/06/28 07:08:49;;;;;;;2.05;0.80;;;;;;;26.09;46.63;99284.69;5077238;28;20132;-62
2022/06/28 07:11:14;;;;;;;1.85;0.60;;;;;;;26.00;47.97;99279.56;5070318;28;20074;-61
2022/06/28 07:13:40;;;;;;;1.05;0.50;;;;;;;26.06;48.29;99280.69;5058683;28;20040;-61
2022/06/28 07:16:06;;;;;;;1.00;0.50;;;;;;;26.17;48.04;99291.84;5061705;28;20033;-61
2022/06/28 07:18:32;;;;;;;1.15;0.50;;;;;;;26.24;46.41;99280.56;5077286;28;20042;-61
2022/06/28 07:21:01;;;;;;;2.13;0.60;;;;;;;26.09;45.16;99289.50;5069435;28;20596;-61
2022/06/28 07:23:28;;;;;;;0.80;0.60;;;;;;;25.98;48.27;99290.38;5058359;28;20079;-60
2022/06/28 07:25:53;;;;;;;4.75;0.75;;;;;;;25.98;49.77;99295.19;5065126;28;20106;-60
2022/06/28 07:28:19;;;;;;;1.67;0.70;;;;;;;26.16;50.07;99284.63;5058355;28;20041;-57
2022/06/28 07:30:44;;;;;;;2.38;0.85;;;;;;;26.10;48.84;99289.09;5073788;28;20032;-57
2022/06/28 07:33:10;;;;;;;3.67;1.00;;;;;;;25.94;50.42;99288.84;5064698;28;20121;-60
2022/06/28 07:35:36;;;;;;;4.57;0.90;;;;;;;25.99;51.52;99279.97;5066447;28;20036;-57
2022/06/28 07:38:02;;;;;;;8.80;4.85;;;;;;;26.08;51.06;99283.13;5057457;28;20041;-57
2022/06/28 07:40:27;;;;;;;8.45;4.57;;;;;;;26.11;49.62;99270.25;5062192;28;20044;-58
2022/06/28 07:42:53;;;;;;;8.95;4.43;;;;;;;26.20;48.99;99274.16;5068075;28;20036;-58
2022/06/28 07:45:18;;;;;;;6.40;3.40;;;;;;;26.28;48.40;99277.69;5059111;28;20047;-58
2022/06/28 07:47:47;;;;;;;5.82;2.40;;;;;;;26.31;47.53;99286.09;5066437;28;20131;-58
2022/06/28 07:53:03;;;;;;;4.82;1.45;;;;;;;26.32;46.16;99276.47;5075514;28;20110;-73
2022/06/28 07:55:29;;;;;;;2.47;1.30;;;;;;;26.24;45.77;99262.94;5077615;28;20044;-59
2022/06/28 07:57:57;;;;;;;6.45;1.55;;;;;;;26.19;49.76;99266.97;5068512;28;20516;-64
2022/06/28 08:00:23;;;;;;;3.47;1.42;;;;;;;26.23;51.31;99255.75;5058052;28;20045;-56
2022/06/28 08:02:49;;;;;;;2.53;1.20;;;;;;;26.24;48.79;99248.91;5077187;28;20040;-58
2022/06/28 08:05:15;;;;;;;4.07;1.02;;;;;;;26.11;49.04;99237.41;5076250;28;20045;-58
2022/06/28 08:07:42;;;;;;;2.78;1.33;;;;;;;26.09;50.36;99239.84;5082544;28;20142;-58
2022/06/28 08:10:08;;;;;;;1.88;1.00;;;;;;;26.11;50.31;99242.22;5061508;28;20052;-58
2022/06/28 08:12:34;;;;;;;4.55;1.08;;;;;;;26.14;50.48;99238.59;5078574;28;20036;-60
2022/06/28 08:14:59;;;;;;;3.05;1.00;;;;;;;26.23;50.74;99228.50;5070427;28;20045;-57
2022/06/28 08:17:25;;;;;;;6.20;1.25;;;;;;;26.31;48.72;99223.59;5063592;28;20062;-57
2022/06/28 08:19:50;;;;;;;1.65;0.80;;;;;;;26.18;47.20;99219.72;5072213;28;20155;-60
2022/06/28 08:22:16;;;;;;;4.90;1.30;;;;;;;26.06;50.24;99219.03;5059883;28;20045;-58
2022/06/28 08:24:41;;;;;;;5.32;0.90;;;;;;;26.04;50.69;99217.88;5066177;28;20091;-58
2022/06/28 08:27:07;;;;;;;5.38;1.10;;;;;;;26.10;50.46;99207.81;5076453;28;20105;-58
2022/06/28 08:29:34;;;;;;;2.88;0.90;;;;;;;26.23;50.29;99216.47;5076054;28;20062;-57
2022/06/28 08:32:00;;;;;;;4.75;0.90;;;;;;;26.35;50.31;99204.72;5077057;28;20079;-57
2022/06/28 08:34:26;;;;;;;3.80;0.90;;;;;;;26.29;48.81;99203.56;5071164;28;20053;-58
2022/06/28 08:36:52;;;;;;;1.50;0.70;;;;;;;26.13;47.91;99206.94;5049122;28;20040;-58
2022/06/28 08:39:19;;;;;;;2.05;0.88;;;;;;;25.98;50.91;99199.91;5050070;28;20044;-58
2022/06/28 08:41:46;;;;;;;1.92;0.80;;;;;;;26.00;51.27;99205.88;5052949;28;20064;-57
2022/06/28 08:44:13;;;;;;;1.50;0.77;;;;;;;26.09;50.74;99200.59;5064070;28;20660;-58
2022/06/28 08:46:39;;;;;;;3.85;0.75;;;;;;;26.20;49.34;99206.09;5051105;28;20033;-57
2022/06/28 08:49:23;;;;;;;1.02;0.60;;;;;;;26.07;48.09;99203.00;5037122;28;20230;-58
2022/06/28 08:51:50;;;;;;;2.90;0.80;;;;;;;25.96;50.17;99196.72;5048885;28;20079;-58
2022/06/28 08:54:19;;;;;;;3.15;1.05;;;;;;;26.07;51.23;99203.00;5072402;28;20048;-58
2022/06/28 08:56:44;;;;;;;1.77;0.73;;;;;;;26.16;51.33;99194.94;5063195;28;20052;-59
2022/06/28 08:59:13;;;;;;;1.15;0.60;;;;;;;26.25;49.53;99191.63;5052980;28;20242;-58
2022/06/28 09:01:39;;;;;;;1.15;0.60;;;;;;;26.17;47.77;99193.72;5055159;28;20064;-58
2022/06/28 09:04:10;;;;;;;2.80;0.70;;;;;;;26.10;50.23;99178.97;5059585;28;20072;-58
2022/06/28 09:06:36;;;;;;;1.73;0.70;;;;;;;26.16;50.98;99178.09;5066004;28;20589;-58
2022/06/28 09:09:01;;;;;;;2.55;0.73;;;;;;;26.25;51.05;99174.78;5063525;28;20052;-58
2022/06/28 09:11:43;;;;;;;1.30;0.68;;;;;;;26.30;49.10;99177.16;5057089;28;20120;-58
2022/06/28 09:14:29;;;;;;;1.05;0.65;;;;;;;26.15;48.97;99184.94;5051450;28;20064;-58
2022/06/28 09:16:58;;;;;;;0.95;0.60;;;;;;;26.12;50.34;99170.94;5056455;28;20041;-59
2022/06/28 09:19:39;;;;;;;1.25;0.50;;;;;;;26.18;50.74;99174.88;5055518;28;20483;-58
2022/06/28 09:22:05;;;;;;;2.55;0.60;;;;;;;26.30;50.56;99177.16;5052771;28;20048;-58
2022/06/28 09:24:34;;;;;;;2.22;0.68;;;;;;;26.27;48.67;99169.56;5058791;28;20060;-59
2022/06/28 09:27:09;;;;;;;2.90;0.82;;;;;;;26.10;49.36;99157.34;5069443;28;20052;-60
2022/06/28 09:29:54;;;;;;;2.53;0.70;;;;;;;26.06;50.50;99146.16;5057526;28;20044;-59
2022/06/28 09:32:31;;;;;;;1.33;0.95;;;;;;;26.15;50.36;99137.28;5051697;28;20060;-58
2022/06/28 09:35:04;;;;;;;0.73;0.52;;;;;;;26.29;49.47;99139.09;5047095;28;20119;-58
2022/06/28 09:37:52;;;;;;;1.50;0.50;;;;;;;26.19;47.22;99131.59;5068625;28;20052;-58
2022/06/28 09:40:19;;;;;;;0.60;0.50;;;;;;;26.08;50.06;99126.13;5043885;28;20048;-58
2022/06/28 09:43:04;;;;;;;0.85;0.55;;;;;;;26.04;50.51;99130.97;5052413;28;20234;-59
2022/06/28 09:45:31;;;;;;;1.35;0.55;;;;;;;26.17;50.72;99122.84;5054823;28;20048;-59
2022/06/28 09:47:56;;;;;;;1.17;0.50;;;;;;;26.18;48.56;99119.59;5060028;28;20049;-58
2022/06/28 09:50:23;;;;;;;1.08;0.52;;;;;;;26.07;47.95;99116.13;5056640;28;20116;-58
2022/06/28 09:52:50;;;;;;;1.30;0.60;;;;;;;26.02;49.59;99103.38;5080818;28;20039;-58
2022/06/28 09:55:17;;;;;;;1.63;0.70;;;;;;;26.10;50.49;99111.69;5050148;28;20120;-58
2022/06/28 09:57:45;;;;;;;1.48;0.55;;;;;;;26.24;50.37;99101.09;5068758;28;20560;-59
2022/06/28 10:00:14;;;;;;;2.35;0.60;;;;;;;26.20;47.91;99103.16;5053275;28;20057;-59
2022/06/28 10:02:41;;;;;;;3.47;0.88;;;;;;;26.07;49.23;99102.09;5056452;28;20107;-58
2022/06/28 10:05:08;;;;;;;2.30;0.50;;;;;;;26.06;49.91;99098.50;5054617;28;20055;-61
2022/06/28 10:07:34;;;;;;;0.70;0.55;;;;;;;26.14;50.13;99093.59;5051850;28;20049;-58
2022/06/28 10:10:02;;;;;;;1.17;0.70;;;;;;;26.26;49.01;99081.06;5037953;28;20048;-58
2022/06/28 10:15:19;;;;;;;3.15;0.60;;;;;;;26.05;49.59;99071.69;5095712;27;20138;-57
2022/06/28 10:17:55;;;;;;;1.63;0.60;;;;;;;26.10;50.16;99076.06;5094945;27;20152;-58
2022/06/28 10:20:27;;;;;;;1.10;0.60;;;;;;;26.19;50.11;99081.94;5092067;27;20036;-57
2022/06/28 10:23:12;;;;;;;1.97;0.80;;;;;;;26.25;48.43;99076.66;5114359;28;20055;-57
2022/06/28 10:25:38;;;;;;;0.82;0.55;;;;;;;26.11;49.00;99077.63;5096652;27;20047;-59
2022/06/28 10:28:33;;;;;;;5.43;0.60;;;;;;;26.01;49.55;99070.16;5101879;27;20050;-58
2022/06/28 10:31:32;;;;;;;0.77;0.50;;;;;;;26.15;50.10;99083.19;5105637;27;20126;-59
2022/06/28 10:34:02;;;;;;;1.50;0.57;;;;;;;26.23;48.77;99079.91;5119102;27;20043;-59
2022/06/28 10:36:41;;;;;;;1.30;0.70;;;;;;;26.09;46.77;99074.47;5118584;27;20034;-58
2022/06/28 10:39:06;;;;;;;1.77;0.63;;;;;;;25.97;49.95;99080.63;5104124;27;20075;-58
2022/06/28 10:41:38;;;;;;;0.65;0.40;;;;;;;25.99;49.66;99078.97;5106026;27;20071;-58
2022/06/28 10:44:22;;;;;;;3.70;1.00;;;;;;;26.04;49.79;99083.31;5112778;27;20502;-58
2022/06/28 10:46:50;;;;;;;3.55;1.08;;;;;;;26.14;49.41;99079.59;5123672;28;20039;-57
2022/06/28 10:49:17;;;;;;;3.40;1.00;;;;;;;26.24;49.58;99087.09;5102348;28;20535;-58
2022/06/28 10:52:13;;;;;;;4.03;1.10;;;;;;;26.23;47.65;99082.69;5107017;27;20047;-58
2022/06/28 10:55:05;;;;;;;1.70;0.93;;;;;;;26.02;49.63;99071.75;5099501;27;20558;-57
2022/06/28 10:57:30;;;;;;;1.85;0.93;;;;;;;25.95;50.64;99072.63;5102537;27;20046;-58
2022/06/28 10:59:59;;;;;;;2.40;1.02;;;;;;;25.96;50.51;99062.22;5117881;28;20044;-59
2022/06/28 11:02:50;;;;;;;2.80;1.10;;;;;;;26.06;49.97;99056.47;5093538;28;20051;-58
2022/06/28 11:05:18;;;;;;;2.75;0.98;;;;;;;26.14;49.71;99059.19;5101518;27;20424;-57
2022/06/28 11:07:57;;;;;;;1.38;0.95;;;;;;;26.17;49.14;99045.13;5101874;28;20039;-58
2022/06/28 11:10:23;;;;;;;2.80;1.00;;;;;;;26.19;47.49;99055.91;5119609;27;20052;-58
2022/06/28 11:12:48;;;;;;;5.53;1.80;;;;;;;25.96;48.96;99051.00;5117372;27;20055;-59
2022/06/28 11:15:35;;;;;;;3.88;2.15;;;;;;;25.81;50.58;99038.38;5105974;27;20044;-58
2022/06/28 11:18:01;;;;;;;6.20;3.17;;;;;;;25.85;50.48;99037.09;5114784;27;20096;-58
2022/06/28 11:20:27;;;;;;;5.72;3.00;;;;;;;25.95;49.75;99027.78;5104954;28;20051;-58
2022/06/28 11:22:53;;;;;;;3.92;2.45;;;;;;;26.02;49.42;99026.91;5102045;28;20829;-59
2022/06/28 11:25:21;;;;;;;3.78;2.00;;;;;;;26.14;48.71;99023.53;5099510;28;20087;-58
2022/06/28 11:27:55;;;;;;;17.52;1.80;;;;;;;26.15;47.35;99022.34;5101380;27;20048;-59
2022/06/28 11:30:27;;;;;;;30.73;2.28;;;;;;;26.19;48.28;99014.66;5099296;27;20956;-58
2022/06/28 11:32:55;;;;;;;13.43;1.60;;;;;;;26.16;48.30;99012.72;5110307;27;20055;-58
2022/06/28 11:35:23;;;;;;;12.38;1.42;;;;;;;26.08;46.75;99008.41;5103737;27;20055;-58
2022/06/28 11:37:55;;;;;;;4.45;1.20;;;;;;;25.95;47.18;98998.97;5099506;27;20059;-59
2022/06/28 11:40:29;;;;;;;8.35;1.30;;;;;;;25.89;48.96;99004.25;5092399;27;20044;-58
2022/06/28 11:43:04;;;;;;;7.45;1.45;;;;;;;25.96;49.20;99006.97;5118214;27;20039;-58
2022/06/28 11:45:31;;;;;;;6.07;1.27;;;;;;;26.11;49.33;99006.78;5119700;28;20051;-58
2022/06/28 11:48:03;;;;;;;4.20;1.08;;;;;;;26.15;47.64;98997.09;5103172;27;20681;-58
2022/06/28 11:50:37;;;;;;;5.83;1.37;;;;;;;26.03;48.10;99000.47;5097084;27;20028;-57